Aviation Digital Data Service (ADDS)

Output produced by METARs form (0621 UTC 26 November 2014)
found at http://aviationweather.gov/adds/metars/
 
KLFT 260553Z AUTO 00000KT 5SM BR FEW002 03/02 A3023 RMK AO2 SLP237 T00330022 10094 20028 401390028 58008